Time;durP1;ratioP1;P1;durP2;ratioP2;P2;SDS_P1;SDS_P2;PMS_P1;PMS_P2;Temp;Humidity;BMP_temperature;BMP_pressure;BME280_temperature;BME280_humidity;BME280_pressure;Samples;Min_cycle;Max_cycle;Signal;HPM_P1;HPM_P2
2023/11/02 00:04:19;;;;;;;;;;;;;;;;;;;;;
2023/11/02 00:06:58;;;;;;;;;0.00;0.00;;;;;-145.09;100.00;59365.97;4420493;28;11190978;-87
2023/11/02 00:13:12;;;;;;;;;;;;;;;;;;;;;
2023/11/02 00:17:01;;;;;;;;;0.00;0.00;;;;;-145.09;100.00;59365.97;1001506;27;101148115;-88
2023/11/02 00:24:08;;;;;;;;;0.00;0.00;;;;;-145.09;100.00;59365.97;1593380;27;42804176;-88
2023/11/02 00:26:38;;;;;;;;;0.00;0.00;;;;;-145.09;100.00;59365.97;3289571;27;17762367;-88
2023/11/02 00:29:11;;;;;;;;;0.00;0.00;;;;;-145.09;100.00;59365.97;1962388;27;42441699;-89
2023/11/02 00:35:01;;;;;;;;;;;;;;;-145.09;100.00;59365.97;728536;27;139712115;-88
2023/11/02 00:40:19;;;;;;;;;0.00;0.00;;;;;10.80;100.00;98506.31;3;117078891;121552261;-88
2023/11/02 00:42:45;;;;;;;;;0.00;0.00;;;;;10.84;100.00;98486.94;5097774;27;45325;-88
2023/11/02 00:45:13;;;;;;;;;0.00;0.00;;;;;-145.09;100.00;59365.97;5126464;27;45082;-88
2023/11/02 00:47:43;;;;;;;;;0.00;0.00;;;;;-145.09;100.00;59365.97;5125812;27;224734;-88
2023/11/02 00:50:54;;;;;;;;;0.00;0.00;;;;;-145.09;100.00;59365.97;5133037;27;29696;-89
2023/11/02 00:53:22;;;;;;;;;3.00;1.00;;;;;10.73;100.00;98327.28;5068703;28;43022;-89
2023/11/02 00:55:49;;;;;;;;;0.00;0.00;;;;;-145.09;100.00;59365.97;5063049;28;45052;-88
2023/11/02 00:58:35;;;;;;;;;0.00;0.00;;;;;-145.09;100.00;59365.97;3500195;28;21921036;-89
2023/11/02 01:01:13;;;;;;;;;0.00;0.00;;;;;10.73;100.00;77595.09;2327268;28;30977095;-88
2023/11/02 01:03:51;;;;;;;;;0.00;0.00;;;;;-145.09;100.00;59365.97;3527370;28;12757955;-89
2023/11/02 01:06:42;;;;;;;;;0.00;0.00;;;;;10.73;100.00;98327.28;2017204;28;54069686;-89
2023/11/02 01:09:22;;;;;;;;;0.00;0.00;;;;;-145.09;100.00;59365.97;1993165;28;46661943;-90
2023/11/02 01:11:50;;;;;;;;;0.00;0.00;;;;;-145.09;100.00;59365.97;3830210;28;17070849;-89
2023/11/02 01:14:24;;;;;;;;;0.00;0.00;;;;;-145.09;100.00;59365.97;5054480;28;28347;-91
2023/11/02 01:16:55;;;;;;;;;0.00;0.00;;;;;-145.09;100.00;59365.97;5027727;28;701597;-90
2023/11/02 01:19:57;;;;;;;;;0.00;0.00;;;;;12.18;100.00;97726.78;5048318;28;45395;-87
2023/11/02 01:22:36;;;;;;;;;0.00;0.00;;;;;12.13;100.00;97749.81;4974635;28;45980;-88
2023/11/02 01:25:05;;;;;;;;;0.00;0.00;;;;;-145.09;100.00;59365.97;4974634;28;45411;-89
2023/11/02 01:27:31;;;;;;;;;0.00;0.00;;;;;12.19;100.00;97715.38;5004547;28;45484;-89
2023/11/02 01:29:57;;;;;;;;;0.00;0.00;;;;;12.18;100.00;97707.69;5019485;28;46416;-89
2023/11/02 01:32:22;;;;;;;;;0.00;0.00;;;;;12.09;100.00;97743.19;5034076;28;45307;-90
2023/11/02 01:34:48;;;;;;;;;0.00;0.00;;;;;12.16;100.00;97774.78;5017729;28;45502;-89
2023/11/02 01:37:13;;;;;;;;;0.00;0.00;;;;;12.28;100.00;97718.19;5016643;28;55226;-86
2023/11/02 01:39:44;;;;;;;;;0.00;0.00;;;;;12.23;100.00;97702.09;5016054;28;60447;-89
2023/11/02 01:42:19;;;;;;;;;0.00;0.00;;;;;12.24;100.00;97735.88;5034166;28;45430;-89
2023/11/02 01:44:51;;;;;;;;;0.75;0.00;;;;;12.31;100.00;97690.06;5017319;28;45201;-88
2023/11/02 01:47:46;;;;;;;;;0.00;0.00;;;;;12.35;100.00;97673.22;5033889;28;45489;-89
2023/11/02 01:50:31;;;;;;;;;;;;;;;;;;;;;
2023/11/02 01:53:59;;;;;;;;;0.00;0.00;;;;;12.50;100.00;97684.13;4992689;28;73055;-89
2023/11/02 01:57:16;;;;;;;;;;;;;;;;;;;;;
2023/11/02 02:00:16;;;;;;;;;;;;;;;;;;;;;
2023/11/02 02:03:31;;;;;;;;;;;;;;;;;;;;;
2023/11/02 02:10:15;;;;;;;;;0.00;0.00;;;;;12.68;100.00;97610.41;4935066;28;45354;-87
2023/11/02 02:12:59;;;;;;;;;0.00;0.00;;;;;12.83;100.00;97593.41;4859286;29;45541;-88
2023/11/02 02:15:36;;;;;;;;;0.00;0.00;;;;;12.84;100.00;97562.91;4843775;29;47433;-89
2023/11/02 02:18:27;;;;;;;;;0.00;0.00;;;;;12.89;100.00;97545.03;4859936;29;45372;-92
2023/11/02 02:20:59;;;;;;;;;0.00;0.00;;;;;12.91;100.00;97556.19;4860005;29;45432;-90
2023/11/02 02:23:47;;;;;;;;;0.00;0.00;;;;;12.92;100.00;97542.97;4843873;29;45586;-91
2023/11/02 02:33:03;;;;;;;;;0.00;0.00;;;;;13.12;100.00;97572.53;4807440;29;45432;-89
2023/11/02 02:36:01;;;;;;;;;0.00;0.00;;;;;13.32;100.00;97560.31;4807747;29;45435;-90
2023/11/02 02:38:47;;;;;;;;;0.00;0.00;;;;;13.15;100.00;97571.44;4807196;29;45443;-90
2023/11/02 02:41:29;;;;;;;;;0.00;0.00;;;;;13.18;100.00;97560.72;4825575;29;45356;-90
2023/11/02 02:49:42;;;;;;;;;0.00;0.00;;;;;13.30;100.00;97519.63;4933833;28;46262;-89
2023/11/02 02:53:00;;;;;;;;;0.00;0.00;;;;;13.29;100.00;97502.28;4957629;28;45500;-89
2023/11/02 02:58:37;;;;;;;;;0.00;0.00;;;;;13.40;100.00;97488.28;4954011;28;45527;-88
2023/11/02 03:01:08;;;;;;;;;0.00;0.00;;;;;13.26;100.00;97513.84;4941439;28;47719;-88
2023/11/02 03:03:38;;;;;;;;;0.00;0.00;;;;;13.24;100.00;97517.53;4976284;28;45485;-88
2023/11/02 03:06:16;;;;;;;;;;;;;;;;;;;;;
2023/11/02 03:08:49;;;;;;;;;0.00;0.00;;;;;13.31;100.00;97492.53;5098232;27;69868;-89
2023/11/02 03:22:11;;;;;;;;;;;;;;;;;;;;;
2023/11/02 03:25:36;;;;;;;;;;;;;;;;;;;;;
2023/11/02 03:28:43;;;;;;;;;0.00;0.00;;;;;13.63;100.00;97445.16;5055946;28;72677;-92
2023/11/02 03:31:36;;;;;;;;;0.00;0.00;;;;;13.68;100.00;97453.38;5040079;28;45358;-90
2023/11/02 03:34:04;;;;;;;;;0.00;0.00;;;;;13.59;100.00;97482.97;5057120;28;45617;-88
2023/11/02 03:36:48;;;;;;;;;0.00;0.00;;;;;13.71;100.00;97473.19;5039223;28;45510;-92
2023/11/02 03:39:28;;;;;;;;;0.00;0.00;;;;;13.77;100.00;97462.13;5056031;28;45416;-93
2023/11/02 03:42:30;;;;;;;;;0.00;0.00;;;;;13.72;100.00;97483.50;5056471;28;45352;-87
2023/11/02 03:45:04;;;;;;;;;0.00;0.00;;;;;13.39;100.00;97487.47;5038747;28;45565;-90
2023/11/02 03:47:42;;;;;;;;;;;;;;;;;;;;;
2023/11/02 03:50:25;;;;;;;;;0.00;0.00;;;;;13.10;100.00;97496.13;5056152;28;71684;-91
2023/11/02 03:53:12;;;;;;;;;0.00;0.00;;;;;12.86;100.00;97478.28;5039340;28;45450;-89
2023/11/02 03:56:11;;;;;;;;;0.00;0.00;;;;;12.68;100.00;97451.22;5056205;28;45351;-90
2023/11/02 03:59:12;;;;;;;;;0.00;0.00;;;;;12.53;100.00;97451.63;5097189;27;45487;-93
2023/11/02 04:01:49;;;;;;;;;0.00;0.00;;;;;12.46;100.00;97455.78;5055604;28;45396;-88
2023/11/02 04:11:57;;;;;;;;;0.00;0.00;;;;;26.64;100.00;97497.91;4995026;28;46512;-93
2023/11/02 04:14:44;;;;;;;;;0.00;0.00;;;;;24.23;100.00;97476.25;4980593;28;45337;-92
2023/11/02 04:17:32;;;;;;;;;0.00;0.00;;;;;-145.09;100.00;59365.97;5008097;28;42878;-89
2023/11/02 04:20:04;;;;;;;;;0.00;0.00;;;;;-145.09;100.00;59365.97;4991036;28;28608;-88
2023/11/02 04:22:50;;;;;;;;;0.00;0.00;;;;;-145.09;100.00;59365.97;5011095;28;8815;-90
2023/11/02 04:25:20;;;;;;;;;0.00;0.00;;;;;-145.09;100.00;59365.97;5003978;28;8819;-88
2023/11/02 04:27:50;;;;;;;;;0.00;0.00;;;;;-145.09;100.00;59365.97;5011120;28;8862;-88
2023/11/02 04:30:15;;;;;;;;;0.00;0.00;;;;;12.45;100.00;97401.13;4996189;28;177958;-87
2023/11/02 04:32:49;;;;;;;;;1.00;0.00;;;;;12.69;100.00;97398.09;4987007;28;144385;-90
2023/11/02 04:35:30;;;;;;;;;;;;;;;;;;;;;
2023/11/02 04:38:52;;;;;;;;;;;;;;;;;;;;;
2023/11/02 04:41:55;;;;;;;;;;;;;;;;;;;;;
2023/11/02 04:44:21;;;;;;;;;0.00;0.00;;;;;11.79;100.00;97385.13;4869486;28;3480531;-89
2023/11/02 04:47:36;;;;;;;;;;;;;;;;;;;;;
2023/11/02 04:50:44;;;;;;;;;;;;;;;;;;;;;
2023/11/02 04:53:25;;;;;;;;;;;;;;;;;;;;;
2023/11/02 05:02:54;;;;;;;;;0.00;0.00;;;;;11.98;100.00;97363.50;4874212;28;3508476;-95
2023/11/02 05:05:44;;;;;;;;;0.00;0.00;;;;;11.98;100.00;97363.50;5014048;28;502164;-94
2023/11/02 05:14:21;;;;;;;;;0.00;0.00;;;;;11.61;100.00;97371.09;5021297;28;45520;-89
2023/11/02 05:17:32;;;;;;;;;0.00;0.00;;;;;11.92;100.00;97376.25;4967010;28;1517666;-93
2023/11/02 05:20:42;;;;;;;;;0.00;0.00;;;;;11.80;100.00;97355.50;5026279;28;45578;-93
2023/11/02 05:33:46;;;;;;;;;1.00;0.00;;;;;11.92;100.00;97373.63;4972749;28;46614;-96
2023/11/02 05:36:12;;;;;;;;;0.25;0.00;;;;;11.92;100.00;97390.13;4967419;28;45442;-90
2023/11/02 05:51:18;;;;;;;;;0.00;0.00;;;;;11.98;100.00;97353.09;4866538;29;45376;-89
2023/11/02 05:53:48;;;;;;;;;1.00;0.00;;;;;12.05;100.00;97362.97;4863948;29;45265;-90
2023/11/02 06:01:59;;;;;;;;;0.00;0.00;;;;;12.10;100.00;97345.94;4879120;29;45316;-90
2023/11/02 06:04:45;;;;;;;;;0.00;0.00;;;;;12.12;100.00;97382.31;4864030;28;45556;-90
2023/11/02 06:07:10;;;;;;;;;0.00;0.00;;;;;12.08;100.00;97362.69;4866345;29;65782;-88
2023/11/02 06:09:36;;;;;;;;;0.67;0.00;;;;;12.33;100.00;97379.56;4885892;28;70764;-89
2023/11/02 06:12:06;;;;;;;;;0.00;0.00;;;;;12.48;100.00;97383.44;4942992;28;45396;-87
2023/11/02 06:17:19;;;;;;;;;0.00;0.00;;;;;12.31;100.00;97366.69;4945546;28;46674;-90
2023/11/02 06:19:51;;;;;;;;;0.00;0.00;;;;;12.34;100.00;97357.75;5058450;28;45606;-90
2023/11/02 06:22:21;;;;;;;;;0.00;0.00;;;;;12.16;100.00;97353.22;5072331;27;45536;-90
2023/11/02 06:34:36;;;;;;;;;2.50;0.00;;;;;12.13;100.00;97399.63;5056893;28;45419;-94
2023/11/02 06:37:34;;;;;;;;;;;;;;;;;;;;;
2023/11/02 06:40:31;;;;;;;;;0.00;0.00;;;;;12.26;100.00;97366.28;5017267;28;75660;-93
2023/11/02 06:43:13;;;;;;;;;0.00;0.00;;;;;12.86;100.00;97392.16;5010318;28;45374;-94
2023/11/02 06:49:36;;;;;;;;;1.00;0.00;;;;;12.25;100.00;97387.25;4882641;29;45590;-93
2023/11/02 06:52:42;;;;;;;;;0.00;0.00;;;;;12.10;100.00;97395.47;4826765;29;46236;-94
2023/11/02 06:55:40;;;;;;;;;0.00;0.00;;;;;12.10;100.00;97368.59;4816651;29;45388;-94
2023/11/02 07:01:50;;;;;;;;;0.00;0.00;;;;;12.20;100.00;97417.19;4771729;29;45636;-92
2023/11/02 07:05:36;;;;;;;;;0.25;0.00;;;;;12.26;100.00;97374.09;4771563;29;46986;-90
2023/11/02 07:08:27;;;;;;;;;1.00;0.00;;;;;12.29;100.00;97373.78;4772194;29;45516;-92
2023/11/02 07:11:21;;;;;;;;;1.00;1.00;;;;;12.32;100.00;97391.78;4789381;29;45476;-92
2023/11/02 07:13:49;;;;;;;;;0.00;0.00;;;;;12.34;100.00;97397.69;4789018;29;45337;-93
2023/11/02 07:16:29;;;;;;;;;0.00;0.00;;;;;12.28;100.00;97423.50;4800522;29;46603;-91
2023/11/02 07:18:56;;;;;;;;;0.00;0.00;;;;;12.34;100.00;97395.09;4844817;29;45494;-91
2023/11/02 07:21:27;;;;;;;;;0.00;0.00;;;;;12.28;100.00;97390.41;4844570;29;45439;-91
2023/11/02 07:27:30;;;;;;;;;0.00;0.00;;;;;12.24;100.00;97409.91;4869137;29;47119;-93
2023/11/02 07:30:19;;;;;;;;;0.00;0.00;;;;;12.16;100.00;97412.34;4948364;28;45685;-93
2023/11/02 07:35:56;;;;;;;;;1.00;0.00;;;;;12.15;100.00;97435.00;4948172;28;45449;-93
2023/11/02 07:38:44;;;;;;;;;0.00;0.00;;;;;12.15;100.00;97427.19;4977723;28;47135;-89
2023/11/02 07:41:11;;;;;;;;;3.00;0.00;;;;;12.14;100.00;97443.78;5017601;28;45420;-92
2023/11/02 07:47:34;;;;;;;;;;;;;;;;;;;;;
2023/11/02 07:50:26;;;;;;;;;0.00;0.00;;;;;12.16;100.00;97438.44;5011246;28;74950;-91
2023/11/02 07:52:57;;;;;;;;;0.00;0.00;;;;;12.03;100.00;97425.66;4958282;28;45271;-94
2023/11/02 07:55:35;;;;;;;;;;;;;;;;;;;;;
2023/11/02 07:58:21;;;;;;;;;1.00;0.00;;;;;11.99;100.00;97445.13;4958429;28;68402;-91
2023/11/02 08:00:53;;;;;;;;;0.00;0.00;;;;;11.62;100.00;97415.22;4957218;28;47413;-94
2023/11/02 08:03:44;;;;;;;;;0.00;0.00;;;;;11.43;100.00;97446.41;4975183;28;45461;-95
2023/11/02 08:06:09;;;;;;;;;0.00;0.00;;;;;11.49;100.00;97440.69;4985160;28;45202;-90
2023/11/02 08:08:57;;;;;;;;;0.00;0.00;;;;;11.34;100.00;97462.81;4983968;28;66272;-93
2023/11/02 08:11:28;;;;;;;;;0.00;0.00;;;;;11.41;100.00;97464.78;4977014;28;47538;-95
2023/11/02 08:14:02;;;;;;;;;0.75;0.00;;;;;11.67;100.00;97493.00;4993667;28;53323;-93
2023/11/02 08:16:58;;;;;;;;;0.75;0.75;;;;;11.26;100.00;97462.66;4992349;28;45358;-93
2023/11/02 08:19:29;;;;;;;;;0.00;0.00;;;;;11.28;100.00;97427.72;4977666;28;45565;-91
2023/11/02 08:22:23;;;;;;;;;0.00;0.00;;;;;11.36;100.00;97435.69;4962276;28;45755;-92
2023/11/02 08:25:27;;;;;;;;;0.00;0.00;;;;;11.39;100.00;97424.22;4961259;28;45471;-93
2023/11/02 08:28:31;;;;;;;;;;;;;;;;;;;;;
2023/11/02 08:32:04;;;;;;;;;;;;;;;;;;;;;
2023/11/02 08:35:23;;;;;;;;;;;;;;;;;;;;;
2023/11/02 08:45:30;;;;;;;;;1.00;0.00;;;;;11.89;100.00;97447.69;4884966;29;45397;-94
2023/11/02 08:55:11;;;;;;;;;0.00;0.00;;;;;12.21;100.00;97477.97;4786221;29;45544;-91
2023/11/02 08:57:59;;;;;;;;;0.00;0.00;;;;;12.35;100.00;97461.09;4797280;29;45403;-91
2023/11/02 09:00:28;;;;;;;;;0.75;0.50;;;;;12.42;100.00;97492.69;4791631;29;45483;-92
2023/11/02 09:02:56;;;;;;;;;0.00;0.00;;;;;12.44;100.00;97488.97;4806871;29;45411;-92
2023/11/02 09:05:22;;;;;;;;;0.00;0.00;;;;;12.54;100.00;97479.38;4790828;29;45386;-89
2023/11/02 09:08:05;;;;;;;;;0.00;0.00;;;;;12.58;100.00;97506.84;4806550;29;45494;-92
2023/11/02 09:10:30;;;;;;;;;0.00;0.00;;;;;12.57;100.00;97466.09;4825572;29;66236;-89
2023/11/02 09:12:58;;;;;;;;;0.00;0.00;;;;;12.48;100.00;97521.69;4861963;29;58641;-95
2023/11/02 09:15:23;;;;;;;;;0.00;0.00;;;;;12.53;100.00;97544.75;4864016;29;51680;-93
2023/11/02 09:17:49;;;;;;;;;0.00;0.00;;;;;12.62;100.00;97564.00;4864128;29;50673;-91
2023/11/02 09:20:16;;;;;;;;;0.75;0.00;;;;;12.48;100.00;97481.72;4894269;28;47509;-91
2023/11/02 09:22:42;;;;;;;;;0.00;0.00;;;;;12.57;100.00;97473.91;4961542;28;45544;-94
2023/11/02 09:25:34;;;;;;;;;0.00;0.00;;;;;12.65;100.00;97491.47;4981581;28;45369;-95
2023/11/02 09:28:41;;;;;;;;;0.00;0.00;;;;;12.66;100.00;97513.19;4996421;28;45357;-91
2023/11/02 09:31:14;;;;;;;;;0.00;0.00;;;;;12.78;100.00;97530.38;5055772;28;45529;-96
2023/11/02 09:33:56;;;;;;;;;0.00;0.00;;;;;12.77;100.00;97513.03;5039267;28;45299;-92
2023/11/02 09:36:29;;;;;;;;;0.00;0.00;;;;;12.84;100.00;97529.81;5057436;28;45675;-93
2023/11/02 09:38:59;;;;;;;;;0.00;0.00;;;;;12.83;100.00;97545.59;5029854;28;45578;-92
2023/11/02 09:41:30;;;;;;;;;0.00;0.00;;;;;12.79;100.00;97561.53;5018928;28;46086;-96
2023/11/02 09:54:32;;;;;;;;;0.00;0.00;;;;;13.02;100.00;97519.50;4940053;28;45494;-93
2023/11/02 09:57:13;;;;;;;;;0.00;0.00;;;;;13.05;100.00;97558.38;4940960;28;45415;-91
2023/11/02 09:59:47;;;;;;;;;0.00;0.00;;;;;13.12;100.00;97559.47;4940896;28;45417;-93
2023/11/02 10:02:22;;;;;;;;;0.50;0.00;;;;;13.13;100.00;97610.75;4940654;28;45400;-94
2023/11/02 10:04:47;;;;;;;;;0.00;0.00;;;;;13.16;100.00;97541.75;4966429;28;45471;-93
2023/11/02 10:07:13;;;;;;;;;0.75;0.00;;;;;13.26;100.00;97567.84;4960053;28;47881;-90
2023/11/02 10:09:38;;;;;;;;;0.00;0.00;;;;;13.28;100.00;97556.31;4959137;28;45586;-90
2023/11/02 10:12:04;;;;;;;;;0.00;0.00;;;;;13.34;100.00;97573.25;4975235;28;45351;-90
2023/11/02 10:14:48;;;;;;;;;0.00;0.00;;;;;13.36;100.00;97548.63;4977486;28;48217;-95
2023/11/02 10:17:14;;;;;;;;;0.00;0.00;;;;;13.45;100.00;97612.28;4976740;28;45422;-89
2023/11/02 10:19:40;;;;;;;;;0.00;0.00;;;;;13.64;100.00;97579.25;4977129;28;45368;-92
2023/11/02 10:22:08;;;;;;;;;0.00;0.00;;;;;13.67;100.00;97579.81;4976561;28;45411;-94
2023/11/02 10:25:03;;;;;;;;;0.00;0.00;;;;;13.83;100.00;97560.06;4942934;28;47543;-93
2023/11/02 10:27:41;;;;;;;;;0.00;0.00;;;;;14.01;100.00;97579.28;5029218;28;45567;-94
2023/11/02 10:30:25;;;;;;;;;0.00;0.00;;;;;14.21;100.00;97597.50;5070756;27;45414;-95
2023/11/02 10:32:53;;;;;;;;;4.00;0.00;;;;;14.24;100.00;97571.06;5063678;27;45590;-91
2023/11/02 10:35:19;;;;;;;;;5.50;1.00;;;;;14.22;100.00;97589.50;5078701;27;45446;-91
2023/11/02 10:38:24;;;;;;;;;3.00;0.00;;;;;14.22;100.00;97607.81;5082000;27;45566;-94
2023/11/02 10:40:52;;;;;;;;;0.00;0.00;;;;;14.30;100.00;97568.69;5098711;27;45471;-94
2023/11/02 10:43:19;;;;;;;;;0.00;0.00;;;;;14.55;100.00;97583.88;5083979;27;45345;-90
2023/11/02 10:45:55;;;;;;;;;0.00;0.00;;;;;14.68;100.00;97592.22;5080856;27;47218;-93
2023/11/02 10:48:40;;;;;;;;;0.00;0.00;;;;;14.80;100.00;97604.13;5096964;27;45940;-93
2023/11/02 10:51:18;;;;;;;;;1.50;0.00;;;;;14.88;100.00;97614.69;5098718;27;45381;-91
2023/11/02 10:54:02;;;;;;;;;1.00;0.00;;;;;15.12;100.00;97594.94;5082196;27;45562;-89
2023/11/02 10:56:49;;;;;;;;;0.00;0.00;;;;;15.20;100.00;97615.16;5088297;27;46603;-91
2023/11/02 10:59:15;;;;;;;;;0.00;0.00;;;;;15.85;100.00;97597.31;5082686;27;45312;-89
2023/11/02 11:01:41;;;;;;;;;0.00;0.00;;;;;17.68;100.00;97616.06;5081799;27;45444;-93
2023/11/02 11:04:10;;;;;;;;;0.00;0.00;;;;;19.26;100.00;97606.44;5082770;27;45444;-88
2023/11/02 11:06:43;;;;;;;;;0.00;0.00;;;;;21.06;100.00;97601.06;5081951;27;46546;-95
2023/11/02 11:09:29;;;;;;;;;0.00;0.00;;;;;21.81;98.46;97640.44;5065363;27;45436;-96
2023/11/02 11:15:25;;;;;;;;;0.00;0.00;;;;;22.30;88.23;97622.84;5075464;27;45588;-93
2023/11/02 11:17:55;;;;;;;;;0.00;0.00;;;;;22.25;82.62;97628.72;5100602;27;45471;-95
2023/11/02 11:20:31;;;;;;;;;;;;;;;;;;;;;
2023/11/02 11:23:02;;;;;;;;;0.00;0.00;;;;;22.15;79.55;97644.94;5083339;27;67874;-94
2023/11/02 11:26:02;;;;;;;;;0.00;0.00;;;;;22.18;74.09;97638.44;5100248;27;45437;-91
2023/11/02 11:28:38;;;;;;;;;0.00;0.00;;;;;22.06;81.63;97629.41;5101066;27;45549;-91
2023/11/02 11:31:09;;;;;;;;;0.75;0.25;;;;;22.54;90.59;97640.09;5100112;27;45164;-91
2023/11/02 11:34:04;;;;;;;;;0.00;0.00;;;;;21.87;72.57;97657.38;5084307;27;45329;-92
2023/11/02 11:36:35;;;;;;;;;0.00;0.00;;;;;22.37;88.04;97643.06;5085788;27;45254;-93
2023/11/02 11:39:30;;;;;;;;;0.00;0.00;;;;;22.08;79.01;97638.78;5112575;27;45690;-95
2023/11/02 11:41:55;;;;;;;;;0.00;0.00;;;;;22.08;90.23;97633.47;5121099;27;45431;-89
2023/11/02 11:44:22;;;;;;;;;0.00;0.00;;;;;21.89;84.64;97640.28;5122150;27;46994;-87
2023/11/02 11:49:57;;;;;;;;;0.00;0.00;;;;;22.36;83.21;97622.06;5118372;27;45458;-94
2023/11/02 11:52:24;;;;;;;;;0.00;0.00;;;;;21.88;88.32;97636.00;5101956;27;45429;-89
2023/11/02 11:54:54;;;;;;;;;0.00;0.00;;;;;21.39;78.52;97639.41;5118994;27;45493;-92
2023/11/02 11:57:51;;;;;;;;;0.00;0.00;;;;;21.55;100.00;97627.81;5120324;27;45334;-88
2023/11/02 12:00:33;;;;;;;;;0.00;0.00;;;;;21.84;75.60;97624.97;5119896;27;45638;-95
2023/11/02 12:03:09;;;;;;;;;0.00;0.00;;;;;22.03;78.56;97646.50;5101245;27;46052;-91
2023/11/02 12:05:44;;;;;;;;;0.00;0.00;;;;;22.09;79.62;97618.44;5120905;27;45427;-90
2023/11/02 12:08:21;;;;;;;;;0.00;0.00;;;;;21.82;75.07;97656.13;5120956;27;45557;-92
2023/11/02 12:10:52;;;;;;;;;0.00;0.00;;;;;22.60;72.53;97677.25;5102161;27;45277;-93
2023/11/02 12:13:20;;;;;;;;;0.00;0.00;;;;;23.52;73.35;97642.47;5103091;27;45385;-91
2023/11/02 12:16:06;;;;;;;;;0.00;0.00;;;;;23.69;63.01;97664.94;5121254;27;45432;-92
2023/11/02 12:18:48;;;;;;;;;;;;;;;;;;;;;
2023/11/02 12:24:27;;;;;;;;;0.00;0.00;;;;;24.93;65.36;97643.91;5037917;28;45331;-90
2023/11/02 12:27:40;;;;;;;;;1.00;0.00;;;;;24.47;57.78;97656.28;5022811;28;45481;-96
2023/11/02 12:30:51;;;;;;;;;0.00;0.00;;;;;24.93;55.94;97662.53;5040701;28;45447;-91
2023/11/02 12:33:35;;;;;;;;;1.00;0.00;;;;;25.37;52.44;97753.22;4975113;28;47094;-93
2023/11/02 12:36:01;;;;;;;;;0.00;0.00;;;;;25.90;49.32;97702.28;4967136;28;45468;-88
2023/11/02 12:39:00;;;;;;;;;;;;;;;;;;;;;
2023/11/02 12:41:50;;;;;;;;;0.00;0.00;;;;;22.49;58.55;97645.16;4978094;28;69078;-92
2023/11/02 12:44:21;;;;;;;;;0.00;0.00;;;;;21.80;57.75;97686.44;4964686;28;45414;-92
2023/11/02 12:47:06;;;;;;;;;;;;;;;;;;;;;
2023/11/02 12:49:50;;;;;;;;;0.00;0.00;;;;;23.24;54.27;97715.09;4978376;28;67645;-95
2023/11/02 12:52:16;;;;;;;;;0.00;0.00;;;;;23.44;52.34;97716.97;4960870;28;45418;-94
2023/11/02 12:54:56;;;;;;;;;0.00;0.00;;;;;23.03;55.12;97725.78;4960497;28;48551;-90
2023/11/02 12:57:40;;;;;;;;;0.00;0.00;;;;;21.53;54.90;97740.97;4975607;28;45459;-96
2023/11/02 13:00:29;;;;;;;;;0.75;0.75;;;;;22.09;63.27;97709.28;4959206;28;45409;-95
2023/11/02 13:03:37;;;;;;;;;0.00;0.00;;;;;21.49;54.60;97750.25;5056348;28;45371;-91
2023/11/02 13:06:03;;;;;;;;;0.00;0.00;;;;;21.09;58.12;97724.16;5037376;28;48056;-90
2023/11/02 13:08:32;;;;;;;;;0.00;0.00;;;;;20.28;57.84;97726.66;5040173;28;45419;-90
2023/11/02 13:11:05;;;;;;;;;0.00;0.00;;;;;19.58;59.08;97714.53;5114267;27;45304;-92
2023/11/02 13:13:30;;;;;;;;;0.00;0.00;;;;;19.41;60.18;97717.28;5118190;27;45474;-88
2023/11/02 13:15:58;;;;;;;;;0.00;0.00;;;;;19.60;57.97;97731.81;5118881;27;46561;-92
2023/11/02 13:18:27;;;;;;;;;0.00;0.00;;;;;19.88;57.94;97718.13;5119144;27;45341;-96
2023/11/02 13:20:54;;;;;;;;;0.00;0.00;;;;;19.49;59.61;97698.75;5119647;27;45453;-91
2023/11/02 13:23:53;;;;;;;;;0.00;0.00;;;;;18.86;59.22;97726.09;5120639;27;45362;-95
2023/11/02 13:26:26;;;;;;;;;0.25;0.00;;;;;18.54;61.44;97706.75;5101241;27;47620;-91
2023/11/02 13:28:52;;;;;;;;;0.00;0.00;;;;;18.15;62.74;97736.44;5101020;27;45396;-92
2023/11/02 13:31:46;;;;;;;;;0.00;0.00;;;;;17.94;65.11;97700.94;5101195;27;45250;-92
2023/11/02 13:34:18;;;;;;;;;0.00;0.00;;;;;17.61;65.18;97732.44;5109489;27;45481;-96
2023/11/02 13:37:11;;;;;;;;;0.00;0.00;;;;;17.61;66.42;97713.22;5119101;27;48220;-93
2023/11/02 13:39:37;;;;;;;;;0.00;0.00;;;;;18.00;67.77;97715.25;5101684;27;45395;-92
2023/11/02 13:42:21;;;;;;;;;1.00;0.00;;;;;18.24;66.14;97724.09;5101359;27;45339;-95
2023/11/02 13:44:56;;;;;;;;;1.00;1.00;;;;;18.75;65.40;97735.16;5100408;27;45431;-93
2023/11/02 13:47:22;;;;;;;;;0.00;0.00;;;;;19.28;64.61;97749.47;5116999;27;58364;-88
2023/11/02 13:49:51;;;;;;;;;0.00;0.00;;;;;19.19;61.69;97741.78;5100719;27;45435;-92
2023/11/02 13:52:16;;;;;;;;;0.00;0.00;;;;;19.14;66.26;97737.03;5100717;27;45301;-90
2023/11/02 13:54:49;;;;;;;;;0.00;0.00;;;;;18.62;67.41;97754.13;5100251;27;49263;-91
2023/11/02 13:57:17;;;;;;;;;0.00;0.00;;;;;17.95;66.90;97752.56;5119280;27;46531;-92
2023/11/02 13:59:42;;;;;;;;;3.00;3.00;;;;;17.52;65.86;97762.34;5100812;27;45357;-91
2023/11/02 14:02:31;;;;;;;;;0.00;0.00;;;;;16.96;66.76;97756.75;5100342;27;45494;-94
2023/11/02 14:05:02;;;;;;;;;0.00;0.00;;;;;16.49;68.63;97751.88;5100745;27;45414;-93
2023/11/02 14:07:30;;;;;;;;;0.00;0.00;;;;;16.19;68.60;97788.09;5100501;27;47326;-92
2023/11/02 14:10:33;;;;;;;;;0.00;0.00;;;;;16.58;69.82;97760.63;5117585;27;45436;-95
2023/11/02 14:13:17;;;;;;;;;0.00;0.00;;;;;16.83;69.22;97749.31;5118229;27;45334;-91
2023/11/02 14:15:42;;;;;;;;;0.00;0.00;;;;;17.16;68.06;97782.78;5100898;27;45251;-90
2023/11/02 14:18:13;;;;;;;;;0.00;0.00;;;;;17.66;67.06;97753.00;5084359;27;48164;-94
2023/11/02 14:20:39;;;;;;;;;0.00;0.00;;;;;18.10;65.65;97771.16;5084868;27;45445;-90
2023/11/02 14:23:05;;;;;;;;;0.00;0.00;;;;;18.93;64.54;97779.78;5100205;27;45408;-92
2023/11/02 14:25:40;;;;;;;;;0.00;0.00;;;;;18.70;65.66;97777.00;5120453;27;45274;-92
2023/11/02 14:28:06;;;;;;;;;0.00;0.00;;;;;18.35;62.93;97792.22;5122769;27;45692;-89
2023/11/02 14:30:31;;;;;;;;;0.00;0.00;;;;;18.29;64.28;97777.88;5104249;27;45299;-91
2023/11/02 14:33:04;;;;;;;;;0.00;0.00;;;;;17.85;65.06;97762.44;5103858;27;45608;-94
2023/11/02 14:35:32;;;;;;;;;0.00;0.00;;;;;17.24;65.57;97776.75;5105394;27;45516;-92
2023/11/02 14:37:58;;;;;;;;;0.00;0.00;;;;;16.82;67.49;97776.53;5121626;27;48978;-89
2023/11/02 14:40:23;;;;;;;;;0.00;0.00;;;;;16.38;67.58;97781.84;5121946;27;45322;-88
2023/11/02 14:42:48;;;;;;;;;0.00;0.00;;;;;15.99;68.37;97791.84;5086531;27;45412;-90
2023/11/02 14:45:32;;;;;;;;;;;;;;;;;;;;;
2023/11/02 14:47:58;;;;;;;;;1.00;0.00;;;;;15.22;69.32;97821.00;5104063;27;74727;-91
2023/11/02 14:50:26;;;;;;;;;0.00;0.00;;;;;15.13;71.03;97808.78;5120851;27;45341;-91
2023/11/02 14:53:08;;;;;;;;;0.00;0.00;;;;;14.88;71.08;97799.78;5103169;27;45455;-91
2023/11/02 14:55:57;;;;;;;;;0.00;0.00;;;;;14.73;71.41;97786.34;5121569;27;45388;-92
2023/11/02 14:58:24;;;;;;;;;0.00;0.00;;;;;14.71;72.73;97789.09;5119889;27;47083;-90
2023/11/02 15:00:56;;;;;;;;;1.00;0.00;;;;;14.60;73.26;97791.88;5102778;27;45793;-90
2023/11/02 15:03:21;;;;;;;;;0.00;0.00;;;;;14.51;72.58;97813.63;5104876;27;45396;-91
2023/11/02 15:05:56;;;;;;;;;0.00;0.00;;;;;14.37;71.98;97811.44;5120732;27;45327;-93
2023/11/02 15:08:33;;;;;;;;;0.00;0.00;;;;;14.27;71.75;97843.69;5104645;27;46743;-96
2023/11/02 15:10:58;;;;;;;;;3.00;3.00;;;;;14.31;73.10;97818.06;5102498;27;45347;-88
2023/11/02 15:13:24;;;;;;;;;0.00;0.00;;;;;14.12;73.23;97809.28;5102086;27;54239;-89
2023/11/02 15:16:12;;;;;;;;;0.00;0.00;;;;;13.92;74.74;97859.91;5103831;27;45446;-92
2023/11/02 15:18:41;;;;;;;;;0.00;0.00;;;;;13.72;99.82;97906.97;5121153;27;46021;-94
2023/11/02 15:21:09;;;;;;;;;0.00;0.00;;;;;12.85;100.00;97899.53;5122161;27;45423;-88
2023/11/02 15:24:13;;;;;;;;;0.00;0.00;;;;;11.93;100.00;97901.81;5103288;27;45360;-91
2023/11/02 15:26:38;;;;;;;;;0.00;0.00;;;;;11.59;100.00;97899.25;5101438;27;45350;-89
2023/11/02 15:29:03;;;;;;;;;0.00;0.00;;;;;11.46;100.00;97901.13;5101859;27;61120;-89
2023/11/02 15:31:30;;;;;;;;;0.00;0.00;;;;;11.49;100.00;97893.91;5084834;27;45416;-89
2023/11/02 15:33:56;;;;;;;;;0.00;0.00;;;;;11.52;100.00;97890.25;5102683;27;45335;-90
2023/11/02 15:36:21;;;;;;;;;0.00;0.00;;;;;11.52;100.00;97904.09;5102379;27;45187;-89
2023/11/02 15:38:47;;;;;;;;;0.00;0.00;;;;;11.47;100.00;97910.59;5101561;27;46227;-88